sensor_id;sensor_type;location;lat;lon;timestamp;pressure;altitude;pressure_sealevel;temperature;humidity
39729;BME280;25402;42.004;23.088;2023-08-06T00:00:57;96135.38;;;17.59;60.05
39729;BME280;25402;42.004;23.088;2023-08-06T00:03:24;96146.88;;;17.61;60.43
39729;BME280;25402;42.004;23.088;2023-08-06T00:05:52;96086.16;;;17.12;61.03
39729;BME280;25402;42.004;23.088;2023-08-06T00:08:20;96142.53;;;17.70;60.56
39729;BME280;25402;42.004;23.088;2023-08-06T00:13:19;96182.03;;;17.84;60.00
39729;BME280;25402;42.004;23.088;2023-08-06T00:15:47;96191.91;;;17.90;60.24
39729;BME280;25402;42.004;23.088;2023-08-06T00:18:14;96199.69;;;18.09;59.75
39729;BME280;25402;42.004;23.088;2023-08-06T00:20:41;96204.59;;;18.12;59.52
39729;BME280;25402;42.004;23.088;2023-08-06T00:23:08;96201.88;;;18.17;59.51
39729;BME280;25402;42.004;23.088;2023-08-06T00:25:36;96188.19;;;18.17;59.06
39729;BME280;25402;42.004;23.088;2023-08-06T00:28:03;96197.28;;;18.27;58.41
39729;BME280;25402;42.004;23.088;2023-08-06T00:30:31;96192.06;;;18.21;56.84
39729;BME280;25402;42.004;23.088;2023-08-06T00:32:58;96208.50;;;18.26;55.89
39729;BME280;25402;42.004;23.088;2023-08-06T00:35:25;96215.06;;;18.25;55.03
39729;BME280;25402;42.004;23.088;2023-08-06T00:37:52;96200.00;;;18.22;54.90
39729;BME280;25402;42.004;23.088;2023-08-06T00:40:20;96184.63;;;18.11;54.97
39729;BME280;25402;42.004;23.088;2023-08-06T00:42:49;96193.72;;;18.22;55.04
39729;BME280;25402;42.004;23.088;2023-08-06T00:45:16;96170.59;;;17.97;55.44
39729;BME280;25402;42.004;23.088;2023-08-06T00:47:43;96185.44;;;18.07;56.10
39729;BME280;25402;42.004;23.088;2023-08-06T00:50:11;96187.13;;;18.18;55.78
39729;BME280;25402;42.004;23.088;2023-08-06T00:52:38;96186.56;;;18.16;55.40
39729;BME280;25402;42.004;23.088;2023-08-06T00:55:05;96189.00;;;18.12;55.77
39729;BME280;25402;42.004;23.088;2023-08-06T00:57:33;96194.47;;;18.12;55.43
39729;BME280;25402;42.004;23.088;2023-08-06T01:00:02;96179.44;;;18.10;55.25
39729;BME280;25402;42.004;23.088;2023-08-06T01:02:29;96161.91;;;18.05;55.40
39729;BME280;25402;42.004;23.088;2023-08-06T01:04:57;96173.41;;;18.13;55.30
39729;BME280;25402;42.004;23.088;2023-08-06T01:07:37;96162.44;;;18.13;55.27
39729;BME280;25402;42.004;23.088;2023-08-06T01:10:19;96130.13;;;17.99;54.96
39729;BME280;25402;42.004;23.088;2023-08-06T01:12:52;96145.97;;;17.97;55.36
39729;BME280;25402;42.004;23.088;2023-08-06T01:15:29;96162.44;;;18.13;55.52
39729;BME280;25402;42.004;23.088;2023-08-06T01:17:59;96148.22;;;18.11;55.59
39729;BME280;25402;42.004;23.088;2023-08-06T01:20:31;96126.06;;;18.12;55.60
39729;BME280;25402;42.004;23.088;2023-08-06T01:22:58;96114.03;;;18.08;55.36
39729;BME280;25402;42.004;23.088;2023-08-06T01:25:32;96120.59;;;18.17;55.43
39729;BME280;25402;42.004;23.088;2023-08-06T01:28:04;96121.44;;;18.18;55.51
39729;BME280;25402;42.004;23.088;2023-08-06T01:30:39;96112.13;;;18.09;55.27
39729;BME280;25402;42.004;23.088;2023-08-06T01:33:11;96130.19;;;18.20;55.39
39729;BME280;25402;42.004;23.088;2023-08-06T01:35:42;96136.22;;;18.17;55.78
39729;BME280;25402;42.004;23.088;2023-08-06T01:38:09;96128.50;;;18.03;56.73
39729;BME280;25402;42.004;23.088;2023-08-06T01:40:36;96166.88;;;18.19;57.45
39729;BME280;25402;42.004;23.088;2023-08-06T01:43:03;96130.94;;;18.00;57.65
39729;BME280;25402;42.004;23.088;2023-08-06T01:45:30;96105.22;;;17.91;56.94
39729;BME280;25402;42.004;23.088;2023-08-06T01:47:57;96137.47;;;17.89;57.35
39729;BME280;25402;42.004;23.088;2023-08-06T01:50:24;96156.81;;;17.77;57.60
39729;BME280;25402;42.004;23.088;2023-08-06T01:52:52;96158.47;;;17.78;57.92
39729;BME280;25402;42.004;23.088;2023-08-06T01:55:19;96129.38;;;17.62;57.75
39729;BME280;25402;42.004;23.088;2023-08-06T01:57:46;96105.56;;;17.57;57.75
39729;BME280;25402;42.004;23.088;2023-08-06T02:00:14;96112.69;;;17.58;57.84
39729;BME280;25402;42.004;23.088;2023-08-06T02:02:41;96130.44;;;17.56;57.81
39729;BME280;25402;42.004;23.088;2023-08-06T02:05:08;96141.31;;;17.51;58.14
39729;BME280;25402;42.004;23.088;2023-08-06T02:07:35;96144.59;;;17.48;58.00
39729;BME280;25402;42.004;23.088;2023-08-06T02:10:04;96161.56;;;17.50;58.07
39729;BME280;25402;42.004;23.088;2023-08-06T02:12:31;96140.78;;;17.49;58.17
39729;BME280;25402;42.004;23.088;2023-08-06T02:14:58;96142.16;;;17.51;58.30
39729;BME280;25402;42.004;23.088;2023-08-06T02:17:25;96165.69;;;17.52;58.18
39729;BME280;25402;42.004;23.088;2023-08-06T02:19:52;96168.16;;;17.54;58.02
39729;BME280;25402;42.004;23.088;2023-08-06T02:22:19;96148.13;;;17.43;57.84
39729;BME280;25402;42.004;23.088;2023-08-06T02:24:46;96158.81;;;17.45;57.37
39729;BME280;25402;42.004;23.088;2023-08-06T02:27:14;96185.91;;;17.51;57.59
39729;BME280;25402;42.004;23.088;2023-08-06T02:29:41;96195.44;;;17.49;57.39
39729;BME280;25402;42.004;23.088;2023-08-06T02:32:08;96206.94;;;17.51;57.35
39729;BME280;25402;42.004;23.088;2023-08-06T02:34:35;96217.41;;;17.59;57.59
39729;BME280;25402;42.004;23.088;2023-08-06T02:37:03;96232.72;;;17.60;57.48
39729;BME280;25402;42.004;23.088;2023-08-06T02:39:30;96228.34;;;17.59;58.14
39729;BME280;25402;42.004;23.088;2023-08-06T02:41:57;96218.38;;;17.43;58.44
39729;BME280;25402;42.004;23.088;2023-08-06T02:44:27;96210.75;;;17.50;58.27
39729;BME280;25402;42.004;23.088;2023-08-06T02:46:54;96214.41;;;17.60;58.22
39729;BME280;25402;42.004;23.088;2023-08-06T02:49:20;96198.72;;;17.46;58.48
39729;BME280;25402;42.004;23.088;2023-08-06T02:51:47;96213.88;;;17.63;57.89
39729;BME280;25402;42.004;23.088;2023-08-06T02:54:14;96224.00;;;17.68;57.75
39729;BME280;25402;42.004;23.088;2023-08-06T02:56:43;96237.44;;;17.69;57.23
39729;BME280;25402;42.004;23.088;2023-08-06T02:59:11;96235.25;;;17.71;57.56
39729;BME280;25402;42.004;23.088;2023-08-06T03:01:39;96239.06;;;17.70;57.81
39729;BME280;25402;42.004;23.088;2023-08-06T03:04:06;96217.47;;;17.69;57.58
39729;BME280;25402;42.004;23.088;2023-08-06T03:06:33;96227.63;;;17.74;57.56
39729;BME280;25402;42.004;23.088;2023-08-06T03:09:00;96228.50;;;17.79;57.57
39729;BME280;25402;42.004;23.088;2023-08-06T03:11:27;96227.94;;;17.77;57.50
39729;BME280;25402;42.004;23.088;2023-08-06T03:13:54;96238.88;;;17.77;57.62
39729;BME280;25402;42.004;23.088;2023-08-06T03:16:21;96220.13;;;17.59;58.31
39729;BME280;25402;42.004;23.088;2023-08-06T03:18:49;96241.28;;;17.74;58.29
39729;BME280;25402;42.004;23.088;2023-08-06T03:21:16;96238.34;;;17.80;58.03
39729;BME280;25402;42.004;23.088;2023-08-06T03:23:46;96210.88;;;17.65;58.34
39729;BME280;25402;42.004;23.088;2023-08-06T03:26:14;96243.78;;;17.75;58.43
39729;BME280;25402;42.004;23.088;2023-08-06T03:28:41;96242.16;;;17.79;58.38
39729;BME280;25402;42.004;23.088;2023-08-06T03:31:08;96243.81;;;17.80;58.19
39729;BME280;25402;42.004;23.088;2023-08-06T03:33:35;96246.56;;;17.80;58.21
39729;BME280;25402;42.004;23.088;2023-08-06T03:36:03;96216.63;;;17.68;58.09
39729;BME280;25402;42.004;23.088;2023-08-06T03:38:30;96191.41;;;17.56;57.96
39729;BME280;25402;42.004;23.088;2023-08-06T03:40:57;96181.25;;;17.47;58.00
39729;BME280;25402;42.004;23.088;2023-08-06T03:43:24;96230.66;;;17.77;57.73
39729;BME280;25402;42.004;23.088;2023-08-06T03:45:51;96239.78;;;17.88;57.61
39729;BME280;25402;42.004;23.088;2023-08-06T03:48:18;96190.59;;;17.56;57.53
39729;BME280;25402;42.004;23.088;2023-08-06T03:50:45;96217.47;;;17.69;57.38
39729;BME280;25402;42.004;23.088;2023-08-06T03:53:13;96234.00;;;17.84;57.39
39729;BME280;25402;42.004;23.088;2023-08-06T03:55:41;96234.25;;;17.83;57.47
39729;BME280;25402;42.004;23.088;2023-08-06T03:58:08;96227.44;;;17.85;57.23
39729;BME280;25402;42.004;23.088;2023-08-06T04:00:35;96233.47;;;17.87;57.48
39729;BME280;25402;42.004;23.088;2023-08-06T04:03:02;96233.22;;;17.89;57.42
39729;BME280;25402;42.004;23.088;2023-08-06T04:05:31;96234.88;;;17.95;57.11
39729;BME280;25402;42.004;23.088;2023-08-06T04:07:58;96222.28;;;17.89;56.76
39729;BME280;25402;42.004;23.088;2023-08-06T04:10:26;96206.69;;;17.89;57.04
39729;BME280;25402;42.004;23.088;2023-08-06T04:12:53;96199.56;;;17.88;57.20
39729;BME280;25402;42.004;23.088;2023-08-06T04:15:20;96213.31;;;18.03;57.21
39729;BME280;25402;42.004;23.088;2023-08-06T04:17:47;96214.44;;;18.08;57.30
39729;BME280;25402;42.004;23.088;2023-08-06T04:20:14;96199.63;;;18.03;57.33
39729;BME280;25402;42.004;23.088;2023-08-06T04:22:41;96209.81;;;18.13;57.31
39729;BME280;25402;42.004;23.088;2023-08-06T04:25:09;96194.47;;;18.07;56.84
39729;BME280;25402;42.004;23.088;2023-08-06T04:27:37;96187.38;;;18.16;56.99
39729;BME280;25402;42.004;23.088;2023-08-06T04:30:08;96195.91;;;18.25;56.92
39729;BME280;25402;42.004;23.088;2023-08-06T04:32:49;96192.66;;;18.33;57.05
39729;BME280;25402;42.004;23.088;2023-08-06T04:35:16;96141.69;;;18.17;57.21
39729;BME280;25402;42.004;23.088;2023-08-06T04:37:43;96171.34;;;18.45;57.16
39729;BME280;25402;42.004;23.088;2023-08-06T04:40:11;96170.59;;;18.55;57.07
39729;BME280;25402;42.004;23.088;2023-08-06T04:42:40;96145.91;;;18.50;56.66
39729;BME280;25402;42.004;23.088;2023-08-06T04:45:07;96149.47;;;18.60;55.93
39729;BME280;25402;42.004;23.088;2023-08-06T04:47:34;96159.38;;;18.71;55.14
39729;BME280;25402;42.004;23.088;2023-08-06T04:50:01;96148.44;;;18.71;55.08
39729;BME280;25402;42.004;23.088;2023-08-06T04:52:28;96141.03;;;18.77;54.84
39729;BME280;25402;42.004;23.088;2023-08-06T04:54:57;96159.38;;;18.82;54.95
39729;BME280;25402;42.004;23.088;2023-08-06T04:57:24;96125.94;;;18.59;54.86
39729;BME280;25402;42.004;23.088;2023-08-06T04:59:53;96154.47;;;18.89;54.55
39729;BME280;25402;42.004;23.088;2023-08-06T05:02:20;96163.50;;;18.94;54.82
39729;BME280;25402;42.004;23.088;2023-08-06T05:04:47;96157.22;;;18.89;54.87
39729;BME280;25402;42.004;23.088;2023-08-06T05:07:14;96161.84;;;18.93;54.59
39729;BME280;25402;42.004;23.088;2023-08-06T05:09:41;96175.31;;;19.10;54.23
39729;BME280;25402;42.004;23.088;2023-08-06T05:12:08;96169.00;;;19.04;53.79
39729;BME280;25402;42.004;23.088;2023-08-06T05:14:36;96165.44;;;19.04;54.07
39729;BME280;25402;42.004;23.088;2023-08-06T05:17:04;96176.44;;;19.19;53.79
39729;BME280;25402;42.004;23.088;2023-08-06T05:19:31;96170.94;;;19.34;52.74
39729;BME280;25402;42.004;23.088;2023-08-06T05:21:58;96176.97;;;19.36;52.35
39729;BME280;25402;42.004;23.088;2023-08-06T05:24:26;96178.63;;;19.48;51.97
39729;BME280;25402;42.004;23.088;2023-08-06T05:26:53;96174.78;;;19.49;51.82
39729;BME280;25402;42.004;23.088;2023-08-06T05:29:20;96176.13;;;19.56;51.91
39729;BME280;25402;42.004;23.088;2023-08-06T05:31:47;96167.06;;;19.61;51.31
39729;BME280;25402;42.004;23.088;2023-08-06T05:34:15;96164.91;;;19.42;50.89
39729;BME280;25402;42.004;23.088;2023-08-06T05:36:42;96163.22;;;19.06;52.16
39729;BME280;25402;42.004;23.088;2023-08-06T05:39:09;96153.13;;;19.06;52.00
39729;BME280;25402;42.004;23.088;2023-08-06T05:41:37;96143.50;;;18.99;52.47
39729;BME280;25402;42.004;23.088;2023-08-06T05:44:04;96173.16;;;19.17;52.14
39729;BME280;25402;42.004;23.088;2023-08-06T05:46:31;96178.88;;;19.21;51.89
39729;BME280;25402;42.004;23.088;2023-08-06T05:48:58;96187.91;;;19.36;51.59
39729;BME280;25402;42.004;23.088;2023-08-06T05:51:27;96190.13;;;19.44;51.50
39729;BME280;25402;42.004;23.088;2023-08-06T05:53:54;96178.59;;;19.73;51.41
39729;BME280;25402;42.004;23.088;2023-08-06T05:56:21;96190.94;;;20.60;49.96
39729;BME280;25402;42.004;23.088;2023-08-06T05:58:48;96197.91;;;21.26;47.53
39729;BME280;25402;42.004;23.088;2023-08-06T06:01:18;96201.41;;;21.02;46.81
39729;BME280;25402;42.004;23.088;2023-08-06T06:03:47;96188.56;;;20.88;47.51
39729;BME280;25402;42.004;23.088;2023-08-06T06:06:14;96197.22;;;21.49;45.96
39729;BME280;25402;42.004;23.088;2023-08-06T06:08:44;96202.97;;;22.34;44.20
39729;BME280;25402;42.004;23.088;2023-08-06T06:11:11;96206.09;;;22.70;43.62
39729;BME280;25402;42.004;23.088;2023-08-06T06:13:38;96209.69;;;23.08;42.46
39729;BME280;25402;42.004;23.088;2023-08-06T06:16:05;96211.84;;;23.11;41.92
39729;BME280;25402;42.004;23.088;2023-08-06T06:18:32;96215.13;;;23.32;41.01
39729;BME280;25402;42.004;23.088;2023-08-06T06:20:58;96202.25;;;23.60;40.34
39729;BME280;25402;42.004;23.088;2023-08-06T06:23:25;96229.56;;;23.94;39.93
39729;BME280;25402;42.004;23.088;2023-08-06T06:25:54;96230.81;;;24.15;39.60
39729;BME280;25402;42.004;23.088;2023-08-06T06:28:21;96225.13;;;24.80;38.38
39729;BME280;25402;42.004;23.088;2023-08-06T06:30:48;96226.88;;;24.76;38.66
39729;BME280;25402;42.004;23.088;2023-08-06T06:33:15;96229.53;;;24.81;37.63
39729;BME280;25402;42.004;23.088;2023-08-06T06:35:43;96237.00;;;24.67;37.97
39729;BME280;25402;42.004;23.088;2023-08-06T06:38:09;96233.94;;;24.55;37.79
39729;BME280;25402;42.004;23.088;2023-08-06T06:40:38;96243.97;;;24.51;37.24
39729;BME280;25402;42.004;23.088;2023-08-06T06:43:07;96241.91;;;24.43;37.85
39729;BME280;25402;42.004;23.088;2023-08-06T06:45:34;96246.41;;;24.25;38.66
39729;BME280;25402;42.004;23.088;2023-08-06T06:48:01;96234.91;;;24.18;39.72
39729;BME280;25402;42.004;23.088;2023-08-06T06:50:28;96233.13;;;23.95;39.98
39729;BME280;25402;42.004;23.088;2023-08-06T06:52:55;96235.13;;;24.08;40.26
39729;BME280;25402;42.004;23.088;2023-08-06T06:55:22;96234.91;;;24.18;39.10
39729;BME280;25402;42.004;23.088;2023-08-06T06:57:49;96234.19;;;24.12;38.59
39729;BME280;25402;42.004;23.088;2023-08-06T07:00:17;96216.38;;;23.91;39.44
39729;BME280;25402;42.004;23.088;2023-08-06T07:02:44;96250.69;;;24.17;39.67
39729;BME280;25402;42.004;23.088;2023-08-06T07:05:11;96244.59;;;24.48;38.99
39729;BME280;25402;42.004;23.088;2023-08-06T07:07:38;96254.09;;;24.69;38.49
39729;BME280;25402;42.004;23.088;2023-08-06T07:10:06;96257.88;;;24.59;38.89
39729;BME280;25402;42.004;23.088;2023-08-06T07:12:33;96256.28;;;24.86;38.59
39729;BME280;25402;42.004;23.088;2023-08-06T07:15:03;96262.00;;;25.25;37.70
39729;BME280;25402;42.004;23.088;2023-08-06T07:17:31;96258.50;;;25.47;37.56
39729;BME280;25402;42.004;23.088;2023-08-06T07:19:58;96265.53;;;25.53;36.80
39729;BME280;25402;42.004;23.088;2023-08-06T07:22:25;96266.19;;;25.37;36.47
39729;BME280;25402;42.004;23.088;2023-08-06T07:24:52;96264.88;;;25.20;36.79
39729;BME280;25402;42.004;23.088;2023-08-06T07:27:19;96231.47;;;24.94;35.80
39729;BME280;25402;42.004;23.088;2023-08-06T07:29:46;96249.41;;;25.19;35.67
39729;BME280;25402;42.004;23.088;2023-08-06T07:32:14;96256.78;;;25.24;35.12
39729;BME280;25402;42.004;23.088;2023-08-06T07:34:42;96246.44;;;24.80;36.14
39729;BME280;25402;42.004;23.088;2023-08-06T07:37:09;96242.09;;;24.87;36.06
39729;BME280;25402;42.004;23.088;2023-08-06T07:39:36;96256.78;;;25.24;35.49
39729;BME280;25402;42.004;23.088;2023-08-06T07:42:05;96257.41;;;25.57;35.04
39729;BME280;25402;42.004;23.088;2023-08-06T07:44:32;96269.94;;;25.99;34.74
39729;BME280;25402;42.004;23.088;2023-08-06T07:46:59;96264.91;;;25.56;34.13
39729;BME280;25402;42.004;23.088;2023-08-06T07:49:26;96251.34;;;25.19;35.67
39729;BME280;25402;42.004;23.088;2023-08-06T07:51:55;96274.72;;;25.40;34.98
39729;BME280;25402;42.004;23.088;2023-08-06T07:54:22;96266.50;;;25.35;33.96
39729;BME280;25402;42.004;23.088;2023-08-06T07:56:49;96270.56;;;25.15;32.60
39729;BME280;25402;42.004;23.088;2023-08-06T07:59:16;96260.94;;;25.13;32.39
39729;BME280;25402;42.004;23.088;2023-08-06T08:01:43;96242.25;;;25.32;32.99
39729;BME280;25402;42.004;23.088;2023-08-06T08:04:10;96240.38;;;25.41;32.73
39729;BME280;25402;42.004;23.088;2023-08-06T08:06:37;96258.38;;;25.75;32.58
39729;BME280;25402;42.004;23.088;2023-08-06T08:09:05;96255.97;;;26.04;32.54
39729;BME280;25402;42.004;23.088;2023-08-06T08:11:32;96256.09;;;25.99;32.85
39729;BME280;25402;42.004;23.088;2023-08-06T08:13:59;96248.97;;;26.07;29.96
39729;BME280;25402;42.004;23.088;2023-08-06T08:16:26;96242.22;;;26.21;30.68
39729;BME280;25402;42.004;23.088;2023-08-06T08:18:53;96242.78;;;26.32;30.61
39729;BME280;25402;42.004;23.088;2023-08-06T08:21:21;96226.84;;;25.84;31.75
39729;BME280;25402;42.004;23.088;2023-08-06T08:23:49;96246.03;;;26.03;31.10
39729;BME280;25402;42.004;23.088;2023-08-06T08:26:18;96250.03;;;26.19;31.26
39729;BME280;25402;42.004;23.088;2023-08-06T08:28:45;96228.97;;;26.10;31.03
39729;BME280;25402;42.004;23.088;2023-08-06T08:31:12;96252.16;;;26.22;30.79
39729;BME280;25402;42.004;23.088;2023-08-06T08:33:39;96231.66;;;26.01;31.41
39729;BME280;25402;42.004;23.088;2023-08-06T08:36:06;96242.41;;;25.94;30.90
39729;BME280;25402;42.004;23.088;2023-08-06T08:38:35;96252.03;;;25.96;31.11
39729;BME280;25402;42.004;23.088;2023-08-06T08:41:02;96249.38;;;26.22;30.94
39729;BME280;25402;42.004;23.088;2023-08-06T08:43:30;96250.41;;;26.57;30.93
39729;BME280;25402;42.004;23.088;2023-08-06T08:46:00;96257.25;;;26.60;29.69
39729;BME280;25402;42.004;23.088;2023-08-06T08:48:28;96240.16;;;26.27;29.54
39729;BME280;25402;42.004;23.088;2023-08-06T08:50:56;96237.41;;;26.05;29.98
39729;BME280;25402;42.004;23.088;2023-08-06T08:53:23;96235.53;;;25.47;29.69
39729;BME280;25402;42.004;23.088;2023-08-06T08:55:52;96224.69;;;25.37;30.75
39729;BME280;25402;42.004;23.088;2023-08-06T08:58:19;96221.91;;;25.37;30.33
39729;BME280;25402;42.004;23.088;2023-08-06T09:00:48;96235.25;;;25.35;30.33
39729;BME280;25402;42.004;23.088;2023-08-06T09:03:16;96235.91;;;25.32;30.42
39729;BME280;25402;42.004;23.088;2023-08-06T09:05:44;96234.06;;;25.27;31.02
39729;BME280;25402;42.004;23.088;2023-08-06T09:08:13;96220.59;;;25.56;30.57
39729;BME280;25402;42.004;23.088;2023-08-06T09:10:43;96230.53;;;26.02;29.48
39729;BME280;25402;42.004;23.088;2023-08-06T09:13:10;96239.56;;;26.39;28.25
39729;BME280;25402;42.004;23.088;2023-08-06T09:15:38;96233.00;;;26.74;28.78
39729;BME280;25402;42.004;23.088;2023-08-06T09:18:11;96236.81;;;26.95;29.21
39729;BME280;25402;42.004;23.088;2023-08-06T09:20:38;96237.69;;;27.39;28.40
39729;BME280;25402;42.004;23.088;2023-08-06T09:23:09;96215.78;;;27.81;27.34
39729;BME280;25402;42.004;23.088;2023-08-06T09:25:38;96239.13;;;27.88;27.87
39729;BME280;25402;42.004;23.088;2023-08-06T09:28:06;96225.75;;;27.64;27.07
39729;BME280;25402;42.004;23.088;2023-08-06T09:30:35;96232.63;;;27.67;27.08
39729;BME280;25402;42.004;23.088;2023-08-06T09:33:03;96215.63;;;27.43;26.60
39729;BME280;25402;42.004;23.088;2023-08-06T09:35:31;96221.66;;;27.01;27.48
39729;BME280;25402;42.004;23.088;2023-08-06T09:38:05;96232.34;;;26.77;28.04
39729;BME280;25402;42.004;23.088;2023-08-06T09:40:34;96242.41;;;26.64;28.25
39729;BME280;25402;42.004;23.088;2023-08-06T09:43:01;96255.75;;;26.23;30.18
39729;BME280;25402;42.004;23.088;2023-08-06T09:45:30;96267.69;;;25.34;31.56
39729;BME280;25402;42.004;23.088;2023-08-06T09:47:59;96252.25;;;24.51;32.00
39729;BME280;25402;42.004;23.088;2023-08-06T09:50:29;96261.72;;;24.17;32.98
39729;BME280;25402;42.004;23.088;2023-08-06T09:52:59;96270.59;;;23.49;35.20
39729;BME280;25402;42.004;23.088;2023-08-06T09:55:26;96273.59;;;23.34;37.13
39729;BME280;25402;42.004;23.088;2023-08-06T09:57:54;96271.88;;;22.77;37.75
39729;BME280;25402;42.004;23.088;2023-08-06T10:00:22;96264.63;;;22.62;38.04
39729;BME280;25402;42.004;23.088;2023-08-06T10:02:49;96261.75;;;22.48;38.53
39729;BME280;25402;42.004;23.088;2023-08-06T10:05:19;96257.59;;;22.75;37.95
39729;BME280;25402;42.004;23.088;2023-08-06T10:07:47;96271.13;;;22.71;37.61
39729;BME280;25402;42.004;23.088;2023-08-06T10:10:16;96265.88;;;22.94;36.46
39729;BME280;25402;42.004;23.088;2023-08-06T10:12:46;96264.25;;;23.30;35.68
39729;BME280;25402;42.004;23.088;2023-08-06T10:15:17;96251.75;;;23.19;35.26
39729;BME280;25402;42.004;23.088;2023-08-06T10:17:47;96253.84;;;23.27;34.85
39729;BME280;25402;42.004;23.088;2023-08-06T10:20:17;96224.28;;;23.46;33.94
39729;BME280;25402;42.004;23.088;2023-08-06T10:22:45;96245.50;;;23.83;33.06
39729;BME280;25402;42.004;23.088;2023-08-06T10:25:18;96237.16;;;24.02;32.25
39729;BME280;25402;42.004;23.088;2023-08-06T10:27:53;96243.88;;;23.96;31.47
39729;BME280;25402;42.004;23.088;2023-08-06T10:30:22;96234.19;;;24.12;30.95
39729;BME280;25402;42.004;23.088;2023-08-06T10:32:51;96239.41;;;24.00;31.72
39729;BME280;25402;42.004;23.088;2023-08-06T10:35:34;96224.91;;;24.08;32.10
39729;BME280;25402;42.004;23.088;2023-08-06T10:38:07;96219.50;;;23.71;32.21
39729;BME280;25402;42.004;23.088;2023-08-06T10:40:37;96240.53;;;24.13;31.69
39729;BME280;25402;42.004;23.088;2023-08-06T10:43:05;96236.13;;;24.12;30.90
39729;BME280;25402;42.004;23.088;2023-08-06T10:45:35;96225.50;;;24.19;30.16
39729;BME280;25402;42.004;23.088;2023-08-06T10:48:04;96234.31;;;24.07;27.80
39729;BME280;25402;42.004;23.088;2023-08-06T10:50:31;96221.63;;;25.02;28.45
39729;BME280;25402;42.004;23.088;2023-08-06T10:53:04;96228.03;;;25.70;27.50
39729;BME280;25402;42.004;23.088;2023-08-06T10:55:31;96209.66;;;25.51;27.03
39729;BME280;25402;42.004;23.088;2023-08-06T10:57:59;96228.47;;;26.16;26.61
39729;BME280;25402;42.004;23.088;2023-08-06T11:00:26;96199.31;;;26.50;25.76
39729;BME280;25402;42.004;23.088;2023-08-06T11:02:54;96240.41;;;26.96;26.81
39729;BME280;25402;42.004;23.088;2023-08-06T11:05:21;96226.19;;;26.89;27.33
39729;BME280;25402;42.004;23.088;2023-08-06T11:07:50;96245.78;;;27.10;27.35
39729;BME280;25402;42.004;23.088;2023-08-06T11:10:18;96247.16;;;27.29;26.89
39729;BME280;25402;42.004;23.088;2023-08-06T11:12:45;96235.84;;;26.91;26.77
39729;BME280;25402;42.004;23.088;2023-08-06T11:15:13;96257.91;;;26.65;26.85
39729;BME280;25402;42.004;23.088;2023-08-06T11:17:41;96247.31;;;26.59;26.32
39729;BME280;25402;42.004;23.088;2023-08-06T11:20:09;96254.63;;;26.55;26.53
39729;BME280;25402;42.004;23.088;2023-08-06T11:22:37;96243.97;;;26.48;26.86
39729;BME280;25402;42.004;23.088;2023-08-06T11:25:06;96245.28;;;26.42;27.32
39729;BME280;25402;42.004;23.088;2023-08-06T11:27:33;96251.97;;;26.41;27.27
39729;BME280;25402;42.004;23.088;2023-08-06T11:30:00;96245.72;;;26.27;27.63
39729;BME280;25402;42.004;23.088;2023-08-06T11:32:29;96246.56;;;26.36;28.00
39729;BME280;25402;42.004;23.088;2023-08-06T11:34:56;96249.09;;;26.63;27.46
39729;BME280;25402;42.004;23.088;2023-08-06T11:37:23;96248.56;;;27.01;27.36
39729;BME280;25402;42.004;23.088;2023-08-06T11:39:51;96190.31;;;27.18;26.61
39729;BME280;25402;42.004;23.088;2023-08-06T11:42:18;96237.69;;;27.56;26.64
39729;BME280;25402;42.004;23.088;2023-08-06T11:44:45;96221.84;;;27.74;25.93
39729;BME280;25402;42.004;23.088;2023-08-06T11:47:15;96222.06;;;28.33;25.13
39729;BME280;25402;42.004;23.088;2023-08-06T11:49:45;96235.13;;;28.70;25.19
39729;BME280;25402;42.004;23.088;2023-08-06T11:52:16;96241.38;;;28.03;25.80
39729;BME280;25402;42.004;23.088;2023-08-06T11:54:45;96217.91;;;27.66;25.91
39729;BME280;25402;42.004;23.088;2023-08-06T11:57:12;96233.63;;;27.54;25.77
39729;BME280;25402;42.004;23.088;2023-08-06T11:59:40;96222.16;;;27.55;25.71
39729;BME280;25402;42.004;23.088;2023-08-06T12:02:08;96210.69;;;28.00;25.63
39729;BME280;25402;42.004;23.088;2023-08-06T12:05:02;96235.28;;;28.65;24.66
39729;BME280;25402;42.004;23.088;2023-08-06T12:07:32;96219.03;;;29.35;24.20
39729;BME280;25402;42.004;23.088;2023-08-06T12:09:59;96206.91;;;29.52;24.28
39729;BME280;25402;42.004;23.088;2023-08-06T12:12:26;96229.28;;;28.93;24.72
39729;BME280;25402;42.004;23.088;2023-08-06T12:14:54;96223.25;;;28.91;24.83
39729;BME280;25402;42.004;23.088;2023-08-06T12:17:21;96217.81;;;28.65;24.62
39729;BME280;25402;42.004;23.088;2023-08-06T12:19:48;96193.41;;;27.68;25.77
39729;BME280;25402;42.004;23.088;2023-08-06T12:22:17;96199.41;;;26.84;26.67
39729;BME280;25402;42.004;23.088;2023-08-06T12:24:45;96216.56;;;26.47;26.56
39729;BME280;25402;42.004;23.088;2023-08-06T12:27:13;96215.56;;;26.34;26.11
39729;BME280;25402;42.004;23.088;2023-08-06T12:29:44;96194.38;;;26.38;25.72
39729;BME280;25402;42.004;23.088;2023-08-06T12:32:12;96208.25;;;26.16;25.95
39729;BME280;25402;42.004;23.088;2023-08-06T12:34:39;96202.75;;;26.64;25.74
39729;BME280;25402;42.004;23.088;2023-08-06T12:37:06;96208.88;;;26.83;25.10
39729;BME280;25402;42.004;23.088;2023-08-06T12:39:35;96211.38;;;27.19;24.81
39729;BME280;25402;42.004;23.088;2023-08-06T12:42:04;96202.69;;;27.72;24.09
39729;BME280;25402;42.004;23.088;2023-08-06T12:44:32;96205.25;;;28.03;24.16
39729;BME280;25402;42.004;23.088;2023-08-06T12:46:59;96211.84;;;27.99;24.37
39729;BME280;25402;42.004;23.088;2023-08-06T12:49:26;96204.31;;;27.91;24.22
39729;BME280;25402;42.004;23.088;2023-08-06T12:51:54;96201.69;;;27.94;24.54
39729;BME280;25402;42.004;23.088;2023-08-06T12:54:22;96193.19;;;27.99;24.36
39729;BME280;25402;42.004;23.088;2023-08-06T12:56:51;96207.91;;;28.00;24.65